Time,TemperatureF,DewpointF,PressureIn,WindDirection,WindDirectionDegrees,WindSpeedMPH,WindSpeedGustMPH,Humidity,HourlyPrecipIn,Conditions,Clouds,dailyrainin,SolarRadiationWatts/m^2,SoftwareType,DateUTC
2013-02-25 00:01:00,47.0,37.0,-100.00,West,261,0.0,2.0,68,-99.99,,,0.00,0.000000,,2013-02-25 05:01:00,
2013-02-25 00:11:00,47.0,37.0,-100.00,West,261,0.0,2.0,68,-99.99,,,0.00,0.000000,,2013-02-25 05:11:00,
2013-02-25 00:12:00,41.0,37.0,-100.00,North,7,0.0,0.0,87,0.00,,,0.00,0.000000,,2013-02-25 05:12:00,
2013-02-25 00:32:00,41.0,37.0,-100.00,North,7,0.0,0.0,87,0.00,,,0.00,0.000000,,2013-02-25 05:32:00,
2013-02-25 00:42:00,41.0,37.0,-100.00,North,7,0.0,0.0,87,0.00,,,0.00,0.000000,,2013-02-25 05:42:00,
2013-02-25 00:52:00,41.0,37.0,-100.00,North,7,0.0,0.0,87,0.00,,,0.00,0.000000,,2013-02-25 05:52:00,
2013-02-25 01:03:00,41.0,37.0,-100.00,North,7,0.0,0.0,87,0.00,,,0.00,0.000000,,2013-02-25 06:03:00,
2013-02-25 01:32:00,43.0,38.0,-100.00,NNW,335,0.0,1.0,84,0.00,,,0.00,0.000000,,2013-02-25 06:32:00,
2013-02-25 01:42:00,43.0,38.0,-100.00,NNW,335,0.0,1.0,84,0.00,,,0.00,0.000000,,2013-02-25 06:42:00,
2013-02-25 01:52:00,43.0,38.0,-100.00,NNW,335,0.0,1.0,84,0.00,,,0.00,0.000000,,2013-02-25 06:52:00,
2013-02-25 02:01:00,43.0,38.0,-100.00,NNW,335,0.0,1.0,84,0.00,,,0.00,0.000000,,2013-02-25 07:01:00,
2013-02-25 02:11:00,43.0,38.0,-100.00,NNW,335,0.0,1.0,84,0.00,,,0.00,0.000000,,2013-02-25 07:11:00,
2013-02-25 02:42:00,43.0,38.0,-100.00,NNW,343,0.0,4.0,82,0.00,,,0.00,0.000000,,2013-02-25 07:42:00,
2013-02-25 02:52:00,43.0,38.0,-100.00,NNW,343,0.0,4.0,82,0.00,,,0.00,0.000000,,2013-02-25 07:52:00,
2013-02-25 03:01:00,43.0,38.0,-100.00,NNW,343,0.0,4.0,82,0.00,,,0.00,0.000000,,2013-02-25 08:01:00,
2013-02-25 03:11:00,43.0,38.0,-100.00,NNW,343,0.0,4.0,82,0.00,,,0.00,0.000000,,2013-02-25 08:11:00,
2013-02-25 03:12:00,47.0,33.0,-100.00,NNW,348,0.0,5.0,58,0.00,,,0.00,0.000000,,2013-02-25 08:12:00,
2013-02-25 03:32:00,47.0,33.0,-100.00,NNW,348,0.0,5.0,58,0.00,,,0.00,0.000000,,2013-02-25 08:32:00,
2013-02-25 03:42:00,47.0,33.0,-100.00,NNW,348,0.0,5.0,58,0.00,,,0.00,0.000000,,2013-02-25 08:42:00,
2013-02-25 03:52:00,47.0,33.0,-100.00,NNW,348,0.0,5.0,58,0.00,,,0.00,0.000000,,2013-02-25 08:52:00,
2013-02-25 04:02:00,47.0,33.0,-100.00,NNW,348,0.0,5.0,58,0.00,,,0.00,0.000000,,2013-02-25 09:02:00,
2013-02-25 04:32:00,47.0,31.0,-100.00,ENE,77,1.0,6.0,53,0.00,,,0.00,0.000000,,2013-02-25 09:32:00,
2013-02-25 04:42:00,47.0,31.0,-100.00,ENE,77,1.0,6.0,53,0.00,,,0.00,0.000000,,2013-02-25 09:42:00,
2013-02-25 04:52:00,47.0,31.0,-100.00,ENE,77,1.0,6.0,53,0.00,,,0.00,0.000000,,2013-02-25 09:52:00,
2013-02-25 05:01:00,47.0,31.0,-100.00,ENE,77,1.0,6.0,53,0.00,,,0.00,0.000000,,2013-02-25 10:01:00,
2013-02-25 05:11:00,47.0,31.0,-100.00,ENE,77,1.0,6.0,53,0.00,,,0.00,0.000000,,2013-02-25 10:11:00,
2013-02-25 05:32:00,47.0,28.0,-100.00,North,10,1.0,7.0,48,0.00,,,0.00,0.000000,,2013-02-25 10:32:00,
2013-02-25 06:32:00,47.0,28.0,-100.00,North,357,0.0,6.0,47,0.00,,,0.00,0.000000,,2013-02-25 11:32:00,
2013-02-25 07:02:00,47.0,28.0,-100.00,North,357,0.0,6.0,47,0.00,,,0.00,0.000000,,2013-02-25 12:02:00,
2013-02-25 07:11:00,47.0,28.0,-100.00,North,357,0.0,6.0,47,0.00,,,0.00,0.000000,,2013-02-25 12:11:00,
2013-02-25 07:12:00,46.0,28.0,-100.00,NE,39,1.0,6.0,50,0.00,,,0.00,0.000000,,2013-02-25 12:12:00,
2013-02-25 07:32:00,46.0,28.0,-100.00,NE,39,1.0,6.0,50,0.00,,,0.00,0.000000,,2013-02-25 12:32:00,
2013-02-25 07:42:00,46.0,28.0,-100.00,NE,39,1.0,6.0,50,0.00,,,0.00,0.000000,,2013-02-25 12:42:00,
2013-02-25 07:56:00,46.0,28.0,-100.00,NE,39,1.0,6.0,50,0.00,,,0.00,0.000000,,2013-02-25 12:56:00,
2013-02-25 08:02:00,46.0,28.0,-100.00,NE,39,1.0,6.0,50,0.00,,,0.00,0.000000,,2013-02-25 13:02:00,
2013-02-25 08:12:00,45.0,28.0,-100.00,North,350,1.0,6.0,51,0.00,,,0.00,13.000000,,2013-02-25 13:12:00,
2013-02-25 08:32:00,45.0,28.0,-100.00,North,350,1.0,6.0,51,0.00,,,0.00,13.000000,,2013-02-25 13:32:00,
2013-02-25 08:42:00,45.0,28.0,-100.00,North,350,1.0,6.0,51,0.00,,,0.00,13.000000,,2013-02-25 13:42:00,
2013-02-25 08:52:00,45.0,28.0,-100.00,North,350,1.0,6.0,51,0.00,,,0.00,13.000000,,2013-02-25 13:52:00,
2013-02-25 09:03:00,45.0,28.0,-100.00,North,350,1.0,6.0,51,0.00,,,0.00,13.000000,,2013-02-25 14:03:00,
2013-02-25 09:32:00,45.0,29.0,-100.00,NNE,12,1.0,4.0,53,0.00,,,0.00,41.000000,,2013-02-25 14:32:00,
2013-02-25 09:42:00,45.0,29.0,-100.00,NNE,12,1.0,4.0,53,0.00,,,0.00,41.000000,,2013-02-25 14:42:00,
2013-02-25 09:52:00,45.0,29.0,-100.00,NNE,12,1.0,4.0,53,0.00,,,0.00,41.000000,,2013-02-25 14:52:00,
2013-02-25 10:03:00,45.0,29.0,-100.00,NNE,12,1.0,4.0,53,0.00,,,0.00,41.000000,,2013-02-25 15:03:00,
2013-02-25 10:11:00,45.0,29.0,-100.00,NNE,12,1.0,4.0,53,0.00,,,0.00,41.000000,,2013-02-25 15:11:00,
2013-02-25 10:12:00,46.0,29.0,-100.00,North,351,1.0,6.0,52,0.00,,,0.00,89.000000,,2013-02-25 15:12:00,
2013-02-25 10:32:00,46.0,29.0,-100.00,North,351,1.0,6.0,52,0.00,,,0.00,89.000000,,2013-02-25 15:32:00,
2013-02-25 10:42:00,46.0,29.0,-100.00,North,351,1.0,6.0,52,0.00,,,0.00,89.000000,,2013-02-25 15:42:00,
2013-02-25 10:52:00,46.0,29.0,-100.00,North,351,1.0,6.0,52,0.00,,,0.00,89.000000,,2013-02-25 15:52:00,
2013-02-25 11:02:00,46.0,29.0,-100.00,North,351,1.0,6.0,52,0.00,,,0.00,89.000000,,2013-02-25 16:02:00,
2013-02-25 11:32:00,46.0,29.0,-100.00,ENE,73,1.0,7.0,52,0.00,,,0.00,96.000000,,2013-02-25 16:32:00,
2013-02-25 11:42:00,46.0,29.0,-100.00,ENE,73,1.0,7.0,52,0.00,,,0.00,96.000000,,2013-02-25 16:42:00,
2013-02-25 11:52:00,46.0,29.0,-100.00,ENE,73,1.0,7.0,52,0.00,,,0.00,96.000000,,2013-02-25 16:52:00,
2013-02-25 12:02:00,46.0,29.0,-100.00,ENE,73,1.0,7.0,52,0.00,,,0.00,96.000000,,2013-02-25 17:02:00,
2013-02-25 12:11:00,46.0,29.0,-100.00,ENE,73,1.0,7.0,52,0.00,,,0.00,96.000000,,2013-02-25 17:11:00,
2013-02-25 12:12:00,46.0,30.0,-100.00,North,1,1.0,8.0,53,0.00,,,0.00,112.000000,,2013-02-25 17:12:00,
2013-02-25 12:32:00,46.0,30.0,-100.00,North,1,1.0,8.0,53,0.00,,,0.00,112.000000,,2013-02-25 17:32:00,
2013-02-25 12:42:00,46.0,30.0,-100.00,North,1,1.0,8.0,53,0.00,,,0.00,112.000000,,2013-02-25 17:42:00,
2013-02-25 12:52:00,46.0,30.0,-100.00,North,1,1.0,8.0,53,0.00,,,0.00,112.000000,,2013-02-25 17:52:00,
2013-02-25 13:02:00,46.0,30.0,-100.00,North,1,1.0,8.0,53,0.00,,,0.00,112.000000,,2013-02-25 18:02:00,
2013-02-25 13:33:00,46.0,31.0,-100.00,NNE,25,1.0,6.0,56,0.00,,,0.00,100.000000,,2013-02-25 18:33:00,
2013-02-25 13:42:00,46.0,31.0,-100.00,NNE,25,1.0,6.0,56,0.00,,,0.00,100.000000,,2013-02-25 18:42:00,
2013-02-25 13:52:00,46.0,31.0,-100.00,NNE,25,1.0,6.0,56,0.00,,,0.00,100.000000,,2013-02-25 18:52:00,
2013-02-25 14:02:00,46.0,31.0,-100.00,NNE,25,1.0,6.0,56,0.00,,,0.00,100.000000,,2013-02-25 19:02:00,
2013-02-25 14:11:00,46.0,31.0,-100.00,NNE,25,1.0,6.0,56,0.00,,,0.00,100.000000,,2013-02-25 19:11:00,
2013-02-25 14:42:00,45.0,32.0,-100.00,NE,35,2.0,8.0,60,0.00,,,0.00,76.000000,,2013-02-25 19:42:00,
2013-02-25 14:52:00,45.0,32.0,-100.00,NE,35,2.0,8.0,60,0.00,,,0.00,76.000000,,2013-02-25 19:52:00,
2013-02-25 15:01:00,45.0,32.0,-100.00,NE,35,2.0,8.0,60,0.00,,,0.00,76.000000,,2013-02-25 20:01:00,
2013-02-25 15:11:00,45.0,32.0,-100.00,NE,35,2.0,8.0,60,0.00,,,0.00,76.000000,,2013-02-25 20:11:00,
2013-02-25 15:32:00,45.0,33.0,-100.00,North,351,2.0,8.0,62,0.00,,,0.00,49.000000,,2013-02-25 20:32:00,
2013-02-25 15:42:00,45.0,33.0,-100.00,North,351,2.0,8.0,62,0.00,,,0.00,49.000000,,2013-02-25 20:42:00,
2013-02-25 15:52:00,45.0,33.0,-100.00,North,351,2.0,8.0,62,0.00,,,0.00,49.000000,,2013-02-25 20:52:00,
2013-02-25 16:02:00,45.0,33.0,-100.00,North,351,2.0,8.0,62,0.00,,,0.00,49.000000,,2013-02-25 21:02:00,
2013-02-25 16:11:00,45.0,33.0,-100.00,North,351,2.0,8.0,62,0.00,,,0.00,49.000000,,2013-02-25 21:11:00,
2013-02-25 16:32:00,44.0,32.0,-100.00,NNE,12,2.0,6.0,63,0.00,,,0.00,35.000000,,2013-02-25 21:32:00,
2013-02-25 16:42:00,44.0,32.0,-100.00,NNE,12,2.0,6.0,63,0.00,,,0.00,35.000000,,2013-02-25 21:42:00,
2013-02-25 16:52:00,44.0,32.0,-100.00,NNE,12,2.0,6.0,63,0.00,,,0.00,35.000000,,2013-02-25 21:52:00,
2013-02-25 17:02:00,44.0,32.0,-100.00,NNE,12,2.0,6.0,63,0.00,,,0.00,35.000000,,2013-02-25 22:02:00,
2013-02-25 17:11:00,44.0,32.0,-100.00,NNE,12,2.0,6.0,63,0.00,,,0.00,35.000000,,2013-02-25 22:11:00,
2013-02-25 17:32:00,43.0,32.0,-100.00,NNE,15,1.0,7.0,64,0.00,,,0.00,26.000000,,2013-02-25 22:32:00,
2013-02-25 17:42:00,43.0,32.0,-100.00,NNE,15,1.0,7.0,64,0.00,,,0.00,26.000000,,2013-02-25 22:42:00,
2013-02-25 17:52:00,43.0,32.0,-100.00,NNE,15,1.0,7.0,64,0.00,,,0.00,26.000000,,2013-02-25 22:52:00,
2013-02-25 18:01:00,43.0,32.0,-100.00,NNE,15,1.0,7.0,64,0.00,,,0.00,26.000000,,2013-02-25 23:01:00,
2013-02-25 18:11:00,43.0,32.0,-100.00,NNE,15,1.0,7.0,64,0.00,,,0.00,26.000000,,2013-02-25 23:11:00,
2013-02-25 18:12:00,43.0,32.0,-100.00,North,8,1.0,6.0,65,0.00,,,0.00,6.000000,,2013-02-25 23:12:00,
2013-02-25 18:32:00,43.0,32.0,-100.00,North,8,1.0,6.0,65,0.00,,,0.00,6.000000,,2013-02-25 23:32:00,
2013-02-25 18:42:00,43.0,32.0,-100.00,North,8,1.0,6.0,65,0.00,,,0.00,6.000000,,2013-02-25 23:42:00,
2013-02-25 18:52:00,43.0,32.0,-100.00,North,8,1.0,6.0,65,0.00,,,0.00,6.000000,,2013-02-25 23:52:00,
2013-02-25 19:02:00,43.0,32.0,-100.00,North,8,1.0,6.0,65,0.00,,,0.00,6.000000,,2013-02-26 00:02:00,
2013-02-25 19:32:00,42.0,31.0,-100.00,ENE,63,1.0,8.0,65,0.00,,,0.00,0.000000,,2013-02-26 00:32:00,
2013-02-25 19:42:00,42.0,31.0,-100.00,ENE,63,1.0,8.0,65,0.00,,,0.00,0.000000,,2013-02-26 00:42:00,
2013-02-25 19:52:00,42.0,31.0,-100.00,ENE,63,1.0,8.0,65,0.00,,,0.00,0.000000,,2013-02-26 00:52:00,
2013-02-25 20:02:00,42.0,31.0,-100.00,ENE,63,1.0,8.0,65,0.00,,,0.00,0.000000,,2013-02-26 01:02:00,
2013-02-25 20:11:00,42.0,31.0,-100.00,ENE,63,1.0,8.0,65,0.00,,,0.00,0.000000,,2013-02-26 01:11:00,
2013-02-25 20:32:00,41.0,33.0,-100.00,NNE,27,2.0,9.0,73,0.00,,,0.00,0.000000,,2013-02-26 01:32:00,
2013-02-25 20:42:00,41.0,33.0,-100.00,NNE,27,2.0,9.0,73,0.00,,,0.00,0.000000,,2013-02-26 01:42:00,
2013-02-25 20:52:00,41.0,33.0,-100.00,NNE,27,2.0,9.0,73,0.00,,,0.00,0.000000,,2013-02-26 01:52:00,
2013-02-25 21:01:00,41.0,33.0,-100.00,NNE,27,2.0,9.0,73,0.00,,,0.00,0.000000,,2013-02-26 02:01:00,
2013-02-25 21:11:00,41.0,33.0,-100.00,NNE,27,2.0,9.0,73,0.00,,,0.00,0.000000,,2013-02-26 02:11:00,
2013-02-25 21:32:00,40.0,34.0,-100.00,NNE,31,1.0,9.0,79,0.00,,,0.00,0.000000,,2013-02-26 02:32:00,
2013-02-25 21:42:00,40.0,34.0,-100.00,NNE,31,1.0,9.0,79,0.00,,,0.00,0.000000,,2013-02-26 02:42:00,
2013-02-25 21:52:00,40.0,34.0,-100.00,NNE,31,1.0,9.0,79,0.00,,,0.00,0.000000,,2013-02-26 02:52:00,
2013-02-25 22:02:00,40.0,34.0,-100.00,NNE,31,1.0,9.0,79,0.00,,,0.00,0.000000,,2013-02-26 03:02:00,
2013-02-25 22:11:00,40.0,34.0,-100.00,NNE,31,1.0,9.0,79,0.00,,,0.00,0.000000,,2013-02-26 03:11:00,
2013-02-25 22:32:00,39.0,34.0,-100.00,North,6,1.0,11.0,83,0.00,,,0.00,0.000000,,2013-02-26 03:32:00,
2013-02-25 22:42:00,39.0,34.0,-100.00,North,6,1.0,11.0,83,0.00,,,0.00,0.000000,,2013-02-26 03:42:00,
2013-02-25 22:52:00,39.0,34.0,-100.00,North,6,1.0,11.0,83,0.00,,,0.00,0.000000,,2013-02-26 03:52:00,
2013-02-25 23:02:00,39.0,34.0,-100.00,North,6,1.0,11.0,83,0.00,,,0.00,0.000000,,2013-02-26 04:02:00,
2013-02-25 23:11:00,39.0,34.0,-100.00,North,6,1.0,11.0,83,0.00,,,0.00,0.000000,,2013-02-26 04:11:00,
2013-02-25 23:12:00,38.0,35.0,-100.00,NNW,345,1.0,6.0,89,0.00,,,0.00,0.000000,,2013-02-26 04:12:00,
2013-02-25 23:42:00,38.0,35.0,-100.00,NNW,345,1.0,6.0,89,0.00,,,0.00,0.000000,,2013-02-26 04:42:00,
2013-02-25 23:52:00,38.0,35.0,-100.00,NNW,345,1.0,6.0,89,0.00,,,0.00,0.000000,,2013-02-26 04:52:00,